Anna, Illinois
Current Conditions -  °F | °C
As of 10:52 PM on Sunday 21 Dec 2014 (Local Time) from KMDH Reporting Station
Overcast Overcast  
Wind Chill: 33°   Ceiling: 8000
Heat Index: 39°   Visibility: 10mi
Dew Point: 30°   Wind: 8mph
Humidity: 70%   Direction: 110°ESE
Pressure: 29.98"   Gusts: NA
Location:  37.46°N, 89.25°W
Report Text: KMDH 220452Z AUTO 11007KT 10SM SCT060 OVC080 04/M01 A2998 RMK AO2 SLP153 T00391011
Loading
Personal Weather Stations






























Interactive Weather Map New forecast layout! Learn more

10-Day Weather Forecast

Advertisements
Track Severe Weather on mobile